sensor_id;sensor_type;location;lat;lon;timestamp;temperature;humidity
1896;DHT22;1455;51.440;7.308;2022-10-28T00:00:36;19.60;99.90
1896;DHT22;1455;51.440;7.308;2022-10-28T06:05:25;19.60;99.90
1896;DHT22;1455;51.440;7.308;2022-10-28T07:07:50;19.60;99.90
1896;DHT22;1455;51.440;7.308;2022-10-28T07:14:32;19.60;99.90
1896;DHT22;1455;51.440;7.308;2022-10-28T07:17:21;19.70;99.90
1896;DHT22;1455;51.440;7.308;2022-10-28T07:20:08;19.60;99.90
1896;DHT22;1455;51.440;7.308;2022-10-28T07:22:59;19.70;99.90
1896;DHT22;1455;51.440;7.308;2022-10-28T07:25:50;19.70;99.90
1896;DHT22;1455;51.440;7.308;2022-10-28T07:28:44;19.70;99.90
1896;DHT22;1455;51.440;7.308;2022-10-28T07:32:04;19.80;99.90
1896;DHT22;1455;51.440;7.308;2022-10-28T07:35:03;20.00;99.90
1896;DHT22;1455;51.440;7.308;2022-10-28T07:52:35;20.20;99.90
1896;DHT22;1455;51.440;7.308;2022-10-28T07:55:54;20.30;99.90
1896;DHT22;1455;51.440;7.308;2022-10-28T07:58:54;20.30;99.90
1896;DHT22;1455;51.440;7.308;2022-10-28T08:01:51;20.30;99.90
1896;DHT22;1455;51.440;7.308;2022-10-28T08:04:53;20.50;99.90
1896;DHT22;1455;51.440;7.308;2022-10-28T08:15:51;20.60;99.90
1896;DHT22;1455;51.440;7.308;2022-10-28T08:18:49;20.80;99.90
1896;DHT22;1455;51.440;7.308;2022-10-28T08:21:37;20.80;99.90
1896;DHT22;1455;51.440;7.308;2022-10-28T08:24:37;20.70;99.90
1896;DHT22;1455;51.440;7.308;2022-10-28T08:27:23;20.70;99.90
1896;DHT22;1455;51.440;7.308;2022-10-28T08:30:11;20.80;99.90
1896;DHT22;1455;51.440;7.308;2022-10-28T08:33:00;20.90;99.90
1896;DHT22;1455;51.440;7.308;2022-10-28T08:35:56;21.00;99.90
1896;DHT22;1455;51.440;7.308;2022-10-28T08:38:56;20.90;99.90
1896;DHT22;1455;51.440;7.308;2022-10-28T08:41:47;21.00;99.90
1896;DHT22;1455;51.440;7.308;2022-10-28T08:45:02;20.90;99.90
1896;DHT22;1455;51.440;7.308;2022-10-28T08:48:12;20.90;99.90
1896;DHT22;1455;51.440;7.308;2022-10-28T08:51:35;21.00;99.90
1896;DHT22;1455;51.440;7.308;2022-10-28T08:54:30;21.00;99.90
1896;DHT22;1455;51.440;7.308;2022-10-28T08:57:25;21.10;99.90
1896;DHT22;1455;51.440;7.308;2022-10-28T09:00:22;21.10;99.90
1896;DHT22;1455;51.440;7.308;2022-10-28T09:03:16;21.20;99.90
1896;DHT22;1455;51.440;7.308;2022-10-28T09:06:35;21.20;99.90
1896;DHT22;1455;51.440;7.308;2022-10-28T09:09:23;21.20;99.90
1896;DHT22;1455;51.440;7.308;2022-10-28T09:12:15;21.30;99.90
1896;DHT22;1455;51.440;7.308;2022-10-28T09:15:30;21.30;99.90
1896;DHT22;1455;51.440;7.308;2022-10-28T09:18:47;21.30;99.90
1896;DHT22;1455;51.440;7.308;2022-10-28T09:21:37;21.40;99.90
1896;DHT22;1455;51.440;7.308;2022-10-28T09:24:31;21.60;99.90
1896;DHT22;1455;51.440;7.308;2022-10-28T09:27:36;21.70;99.90
1896;DHT22;1455;51.440;7.308;2022-10-28T09:30:56;21.80;99.90
1896;DHT22;1455;51.440;7.308;2022-10-28T09:34:05;21.80;99.90
1896;DHT22;1455;51.440;7.308;2022-10-28T09:37:05;21.90;99.90
1896;DHT22;1455;51.440;7.308;2022-10-28T09:40:06;22.00;99.90
1896;DHT22;1455;51.440;7.308;2022-10-28T09:43:00;22.20;99.90
1896;DHT22;1455;51.440;7.308;2022-10-28T09:45:54;22.40;99.90
1896;DHT22;1455;51.440;7.308;2022-10-28T09:49:10;22.80;99.90
1896;DHT22;1455;51.440;7.308;2022-10-28T09:52:03;23.70;99.90
1896;DHT22;1455;51.440;7.308;2022-10-28T09:55:06;24.70;99.90
1896;DHT22;1455;51.440;7.308;2022-10-28T09:58:11;25.60;99.90
1896;DHT22;1455;51.440;7.308;2022-10-28T10:01:41;26.00;99.90
1896;DHT22;1455;51.440;7.308;2022-10-28T10:04:35;26.30;99.90
1896;DHT22;1455;51.440;7.308;2022-10-28T10:07:37;26.70;99.90
1896;DHT22;1455;51.440;7.308;2022-10-28T10:10:29;26.80;99.90
1896;DHT22;1455;51.440;7.308;2022-10-28T10:13:16;26.60;99.90
1896;DHT22;1455;51.440;7.308;2022-10-28T10:16:12;26.10;99.90
1896;DHT22;1455;51.440;7.308;2022-10-28T10:19:00;25.60;99.90
1896;DHT22;1455;51.440;7.308;2022-10-28T10:28:57;24.80;99.90
1896;DHT22;1455;51.440;7.308;2022-10-28T10:31:48;24.90;99.90
1896;DHT22;1455;51.440;7.308;2022-10-28T10:35:04;25.00;99.90
1896;DHT22;1455;51.440;7.308;2022-10-28T10:38:15;24.90;99.90
1896;DHT22;1455;51.440;7.308;2022-10-28T10:44:32;24.40;99.90
1896;DHT22;1455;51.440;7.308;2022-10-28T10:47:42;24.30;99.90
1896;DHT22;1455;51.440;7.308;2022-10-28T10:51:26;24.20;99.90
1896;DHT22;1455;51.440;7.308;2022-10-28T10:54:59;24.20;99.90
1896;DHT22;1455;51.440;7.308;2022-10-28T10:58:32;24.20;99.90
1896;DHT22;1455;51.440;7.308;2022-10-28T11:01:41;24.30;99.90
1896;DHT22;1455;51.440;7.308;2022-10-28T11:04:46;24.40;99.90
1896;DHT22;1455;51.440;7.308;2022-10-28T11:08:05;24.40;99.90
1896;DHT22;1455;51.440;7.308;2022-10-28T11:11:32;24.50;99.90
1896;DHT22;1455;51.440;7.308;2022-10-28T11:14:58;24.50;99.90
1896;DHT22;1455;51.440;7.308;2022-10-28T11:39:48;25.50;99.90
1896;DHT22;1455;51.440;7.308;2022-10-28T11:43:07;25.40;99.90
1896;DHT22;1455;51.440;7.308;2022-10-28T11:49:59;25.70;99.90
1896;DHT22;1455;51.440;7.308;2022-10-28T11:53:38;25.70;99.90
1896;DHT22;1455;51.440;7.308;2022-10-28T11:56:50;25.70;99.90
1896;DHT22;1455;51.440;7.308;2022-10-28T12:00:21;25.80;99.90
1896;DHT22;1455;51.440;7.308;2022-10-28T12:28:40;26.20;99.90
1896;DHT22;1455;51.440;7.308;2022-10-28T22:30:50;18.50;99.90
1896;DHT22;1455;51.440;7.308;2022-10-28T22:33:36;18.50;99.90
1896;DHT22;1455;51.440;7.308;2022-10-28T22:36:23;18.40;99.90
1896;DHT22;1455;51.440;7.308;2022-10-28T22:39:10;18.40;99.90
1896;DHT22;1455;51.440;7.308;2022-10-28T22:41:55;18.40;99.90
1896;DHT22;1455;51.440;7.308;2022-10-28T22:44:42;18.50;99.90
1896;DHT22;1455;51.440;7.308;2022-10-28T22:47:30;18.40;99.90
1896;DHT22;1455;51.440;7.308;2022-10-28T22:50:16;18.30;99.90
1896;DHT22;1455;51.440;7.308;2022-10-28T22:53:02;18.20;99.90
1896;DHT22;1455;51.440;7.308;2022-10-28T23:23:01;18.00;99.90
1896;DHT22;1455;51.440;7.308;2022-10-28T23:25:51;18.00;99.90
1896;DHT22;1455;51.440;7.308;2022-10-28T23:28:37;18.10;99.90
1896;DHT22;1455;51.440;7.308;2022-10-28T23:31:23;18.10;99.90
1896;DHT22;1455;51.440;7.308;2022-10-28T23:34:09;18.10;99.90
1896;DHT22;1455;51.440;7.308;2022-10-28T23:36:55;18.20;99.90
1896;DHT22;1455;51.440;7.308;2022-10-28T23:39:42;18.20;99.90
1896;DHT22;1455;51.440;7.308;2022-10-28T23:42:28;18.20;99.90
1896;DHT22;1455;51.440;7.308;2022-10-28T23:45:14;18.10;99.90
